sensor_id;sensor_type;location;lat;lon;timestamp;pressure;altitude;pressure_sealevel;temperature;humidity
70302;BME280;57706;56.326;43.882;2022-10-23T00:01:38;101130.09;;;4.54;63.93
70302;BME280;57706;56.326;43.882;2022-10-23T00:04:09;101129.38;;;4.52;64.28
70302;BME280;57706;56.326;43.882;2022-10-23T00:06:35;101125.22;;;4.50;64.31
70302;BME280;57706;56.326;43.882;2022-10-23T00:09:03;101124.25;;;4.77;63.36
70302;BME280;57706;56.326;43.882;2022-10-23T00:11:30;101124.16;;;4.65;63.62
70302;BME280;57706;56.326;43.882;2022-10-23T00:13:58;101125.94;;;4.52;64.14
70302;BME280;57706;56.326;43.882;2022-10-23T00:16:26;101120.31;;;4.58;63.94
70302;BME280;57706;56.326;43.882;2022-10-23T00:18:51;101122.09;;;4.58;63.90
70302;BME280;57706;56.326;43.882;2022-10-23T00:21:17;101120.13;;;4.61;63.69
70302;BME280;57706;56.326;43.882;2022-10-23T00:23:44;101109.91;;;4.58;63.93
70302;BME280;57706;56.326;43.882;2022-10-23T00:26:10;101108.47;;;4.41;64.48
70302;BME280;57706;56.326;43.882;2022-10-23T00:28:48;101110.75;;;4.46;64.33
70302;BME280;57706;56.326;43.882;2022-10-23T00:31:15;101112.00;;;4.53;63.88
70302;BME280;57706;56.326;43.882;2022-10-23T00:33:42;101102.66;;;4.37;64.46
70302;BME280;57706;56.326;43.882;2022-10-23T00:36:10;101106.38;;;4.33;64.59
70302;BME280;57706;56.326;43.882;2022-10-23T00:38:37;101099.91;;;4.52;64.22
70302;BME280;57706;56.326;43.882;2022-10-23T00:41:05;101096.19;;;4.30;65.12
70302;BME280;57706;56.326;43.882;2022-10-23T00:43:32;101105.13;;;4.52;64.34
70302;BME280;57706;56.326;43.882;2022-10-23T00:45:58;101103.59;;;4.36;64.87
70302;BME280;57706;56.326;43.882;2022-10-23T00:48:25;101097.00;;;4.44;64.66
70302;BME280;57706;56.326;43.882;2022-10-23T00:50:52;101103.88;;;4.19;65.38
70302;BME280;57706;56.326;43.882;2022-10-23T00:53:37;101107.72;;;4.13;65.57
70302;BME280;57706;56.326;43.882;2022-10-23T00:56:03;101095.66;;;4.25;65.56
70302;BME280;57706;56.326;43.882;2022-10-23T00:58:29;101104.28;;;4.12;66.03
70302;BME280;57706;56.326;43.882;2022-10-23T01:01:17;101098.47;;;4.35;65.15
70302;BME280;57706;56.326;43.882;2022-10-23T01:03:43;101102.00;;;4.21;65.89
70302;BME280;57706;56.326;43.882;2022-10-23T01:06:14;101100.75;;;4.26;65.65
70302;BME280;57706;56.326;43.882;2022-10-23T01:08:56;101099.41;;;4.47;64.76
70302;BME280;57706;56.326;43.882;2022-10-23T01:11:36;101095.16;;;4.20;65.49
70302;BME280;57706;56.326;43.882;2022-10-23T01:14:31;101087.00;;;4.50;64.88
70302;BME280;57706;56.326;43.882;2022-10-23T01:17:34;101092.63;;;4.44;64.60
70302;BME280;57706;56.326;43.882;2022-10-23T01:23:10;101088.38;;;4.17;65.94
70302;BME280;57706;56.326;43.882;2022-10-23T01:25:57;101089.72;;;4.23;65.98
70302;BME280;57706;56.326;43.882;2022-10-23T01:28:30;101087.03;;;4.37;65.53
70302;BME280;57706;56.326;43.882;2022-10-23T01:30:58;101085.97;;;4.53;64.84
70302;BME280;57706;56.326;43.882;2022-10-23T01:33:36;101090.75;;;4.33;65.69
70302;BME280;57706;56.326;43.882;2022-10-23T01:36:10;101078.47;;;4.22;66.00
70302;BME280;57706;56.326;43.882;2022-10-23T01:38:44;101085.00;;;4.02;66.90
70302;BME280;57706;56.326;43.882;2022-10-23T01:41:31;101087.03;;;4.37;65.72
70302;BME280;57706;56.326;43.882;2022-10-23T01:44:05;101079.72;;;4.30;65.92
70302;BME280;57706;56.326;43.882;2022-10-23T01:46:34;101081.28;;;4.06;66.99
70302;BME280;57706;56.326;43.882;2022-10-23T01:49:05;101079.22;;;4.24;66.41
70302;BME280;57706;56.326;43.882;2022-10-23T01:51:34;101076.50;;;4.39;66.13
70302;BME280;57706;56.326;43.882;2022-10-23T01:54:07;101071.41;;;4.24;66.59
70302;BME280;57706;56.326;43.882;2022-10-23T01:56:36;101067.56;;;4.30;66.63
70302;BME280;57706;56.326;43.882;2022-10-23T01:59:14;101072.44;;;4.35;66.41
70302;BME280;57706;56.326;43.882;2022-10-23T02:01:44;101068.69;;;4.26;67.04
70302;BME280;57706;56.326;43.882;2022-10-23T02:04:14;101065.78;;;4.18;67.49
70302;BME280;57706;56.326;43.882;2022-10-23T02:07:01;101074.31;;;4.33;66.92
70302;BME280;57706;56.326;43.882;2022-10-23T02:09:27;101063.78;;;4.34;67.04
70302;BME280;57706;56.326;43.882;2022-10-23T02:12:18;101070.38;;;4.40;67.10
70302;BME280;57706;56.326;43.882;2022-10-23T02:14:57;101068.19;;;4.21;67.47
70302;BME280;57706;56.326;43.882;2022-10-23T02:17:33;101065.28;;;4.12;67.90
70302;BME280;57706;56.326;43.882;2022-10-23T02:20:21;101069.53;;;4.39;67.31
70302;BME280;57706;56.326;43.882;2022-10-23T02:23:15;101070.66;;;4.35;67.48
70302;BME280;57706;56.326;43.882;2022-10-23T02:25:53;101073.56;;;4.44;67.42
70302;BME280;57706;56.326;43.882;2022-10-23T02:28:27;101070.53;;;4.63;66.72
70302;BME280;57706;56.326;43.882;2022-10-23T02:30:59;101068.06;;;4.35;67.64
70302;BME280;57706;56.326;43.882;2022-10-23T02:33:27;101067.75;;;4.27;68.18
70302;BME280;57706;56.326;43.882;2022-10-23T02:35:54;101060.38;;;4.47;67.76
70302;BME280;57706;56.326;43.882;2022-10-23T02:38:35;101057.88;;;4.32;68.23
70302;BME280;57706;56.326;43.882;2022-10-23T02:52:15;101053.28;;;4.10;69.86
70302;BME280;57706;56.326;43.882;2022-10-23T02:55:02;101057.88;;;4.32;68.88
70302;BME280;57706;56.326;43.882;2022-10-23T02:58:23;101049.34;;;4.30;69.25
70302;BME280;57706;56.326;43.882;2022-10-23T03:01:13;101046.75;;;4.17;69.76
70302;BME280;57706;56.326;43.882;2022-10-23T03:04:00;101048.19;;;4.34;69.30
70302;BME280;57706;56.326;43.882;2022-10-23T03:06:27;101055.06;;;4.09;70.69
70302;BME280;57706;56.326;43.882;2022-10-23T03:08:58;101049.44;;;4.16;70.64
70302;BME280;57706;56.326;43.882;2022-10-23T03:11:42;101045.38;;;4.37;69.84
70302;BME280;57706;56.326;43.882;2022-10-23T03:14:09;101038.84;;;4.32;70.20
70302;BME280;57706;56.326;43.882;2022-10-23T03:16:36;101044.44;;;4.38;70.21
70302;BME280;57706;56.326;43.882;2022-10-23T03:19:02;101049.53;;;4.27;70.73
70302;BME280;57706;56.326;43.882;2022-10-23T03:21:28;101038.59;;;4.48;70.09
70302;BME280;57706;56.326;43.882;2022-10-23T03:23:54;101039.31;;;4.50;69.86
70302;BME280;57706;56.326;43.882;2022-10-23T03:26:30;101034.75;;;4.40;70.49
70302;BME280;57706;56.326;43.882;2022-10-23T03:28:56;101039.56;;;4.21;71.36
70302;BME280;57706;56.326;43.882;2022-10-23T03:31:22;101039.22;;;4.38;70.77
70302;BME280;57706;56.326;43.882;2022-10-23T03:33:53;101039.34;;;4.24;71.17
70302;BME280;57706;56.326;43.882;2022-10-23T03:36:20;101034.69;;;4.03;72.10
70302;BME280;57706;56.326;43.882;2022-10-23T03:38:46;101033.22;;;4.12;71.83
70302;BME280;57706;56.326;43.882;2022-10-23T03:41:12;101024.91;;;4.07;72.35
70302;BME280;57706;56.326;43.882;2022-10-23T03:43:37;101026.25;;;4.12;72.29
70302;BME280;57706;56.326;43.882;2022-10-23T03:46:05;101017.78;;;4.35;71.40
70302;BME280;57706;56.326;43.882;2022-10-23T03:48:34;101027.50;;;4.20;71.73
70302;BME280;57706;56.326;43.882;2022-10-23T03:51:04;101025.81;;;4.19;72.01
70302;BME280;57706;56.326;43.882;2022-10-23T03:53:30;101024.09;;;4.44;71.39
70302;BME280;57706;56.326;43.882;2022-10-23T03:55:59;101020.81;;;4.16;72.23
70302;BME280;57706;56.326;43.882;2022-10-23T03:58:25;101025.00;;;4.05;72.93
70302;BME280;57706;56.326;43.882;2022-10-23T04:00:51;101016.25;;;4.06;72.88
70302;BME280;57706;56.326;43.882;2022-10-23T04:03:17;101031.84;;;4.32;71.71
70302;BME280;57706;56.326;43.882;2022-10-23T04:05:43;101028.28;;;4.33;71.53
70302;BME280;57706;56.326;43.882;2022-10-23T04:08:09;101021.44;;;4.06;72.64
70302;BME280;57706;56.326;43.882;2022-10-23T04:10:35;101025.72;;;4.07;72.79
70302;BME280;57706;56.326;43.882;2022-10-23T04:13:01;101006.53;;;4.34;71.36
70302;BME280;57706;56.326;43.882;2022-10-23T04:15:29;101023.72;;;4.24;71.60
70302;BME280;57706;56.326;43.882;2022-10-23T04:17:55;101027.78;;;4.02;72.31
70302;BME280;57706;56.326;43.882;2022-10-23T04:20:21;101020.41;;;4.22;71.88
70302;BME280;57706;56.326;43.882;2022-10-23T04:22:47;101014.38;;;4.08;72.13
70302;BME280;57706;56.326;43.882;2022-10-23T04:25:13;101020.59;;;4.19;72.13
70302;BME280;57706;56.326;43.882;2022-10-23T04:27:38;101013.53;;;4.21;71.89
70302;BME280;57706;56.326;43.882;2022-10-23T04:30:05;101025.06;;;4.30;71.53
70302;BME280;57706;56.326;43.882;2022-10-23T04:32:31;101010.38;;;4.41;70.87
70302;BME280;57706;56.326;43.882;2022-10-23T04:34:57;101012.28;;;4.13;72.08
70302;BME280;57706;56.326;43.882;2022-10-23T04:37:22;101008.34;;;4.21;71.98
70302;BME280;57706;56.326;43.882;2022-10-23T04:39:48;101009.56;;;3.76;73.88
70302;BME280;57706;56.326;43.882;2022-10-23T04:42:14;101006.47;;;3.97;73.37
70302;BME280;57706;56.326;43.882;2022-10-23T04:44:40;101013.25;;;3.87;73.88
70302;BME280;57706;56.326;43.882;2022-10-23T04:47:06;101005.22;;;4.16;72.83
70302;BME280;57706;56.326;43.882;2022-10-23T04:49:37;101014.34;;;4.21;72.12
70302;BME280;57706;56.326;43.882;2022-10-23T04:52:32;101005.41;;;4.38;71.65
70302;BME280;57706;56.326;43.882;2022-10-23T04:55:14;101008.13;;;4.24;72.18
70302;BME280;57706;56.326;43.882;2022-10-23T04:57:43;101006.69;;;4.20;72.58
70302;BME280;57706;56.326;43.882;2022-10-23T05:00:12;101003.00;;;4.35;71.74
70302;BME280;57706;56.326;43.882;2022-10-23T05:02:43;101000.84;;;4.29;72.13
70302;BME280;57706;56.326;43.882;2022-10-23T05:05:14;101002.31;;;4.07;73.06
70302;BME280;57706;56.326;43.882;2022-10-23T05:07:49;101002.50;;;4.17;73.05
70302;BME280;57706;56.326;43.882;2022-10-23T05:10:30;101007.41;;;4.22;72.72
70302;BME280;57706;56.326;43.882;2022-10-23T05:13:13;100995.00;;;4.25;72.49
70302;BME280;57706;56.326;43.882;2022-10-23T05:15:39;101007.28;;;4.36;72.21
70302;BME280;57706;56.326;43.882;2022-10-23T05:18:33;101003.53;;;4.27;72.94
70302;BME280;57706;56.326;43.882;2022-10-23T05:21:21;101009.06;;;4.23;73.19
70302;BME280;57706;56.326;43.882;2022-10-23T05:23:50;100994.59;;;4.32;72.69
70302;BME280;57706;56.326;43.882;2022-10-23T05:26:17;100997.06;;;4.33;72.73
70302;BME280;57706;56.326;43.882;2022-10-23T05:28:45;101004.16;;;4.31;72.79
70302;BME280;57706;56.326;43.882;2022-10-23T05:31:14;101001.03;;;4.26;72.80
70302;BME280;57706;56.326;43.882;2022-10-23T05:33:43;101008.34;;;4.21;73.21
70302;BME280;57706;56.326;43.882;2022-10-23T05:36:10;100997.88;;;4.47;72.32
70302;BME280;57706;56.326;43.882;2022-10-23T05:38:37;100998.00;;;4.32;72.75
70302;BME280;57706;56.326;43.882;2022-10-23T05:41:10;101003.94;;;4.34;72.76
70302;BME280;57706;56.326;43.882;2022-10-23T05:43:36;101000.19;;;4.38;72.57
70302;BME280;57706;56.326;43.882;2022-10-23T05:46:25;101000.13;;;4.64;71.67
70302;BME280;57706;56.326;43.882;2022-10-23T05:49:09;100997.66;;;4.50;72.18
70302;BME280;57706;56.326;43.882;2022-10-23T05:52:12;101002.31;;;4.71;71.35
70302;BME280;57706;56.326;43.882;2022-10-23T05:54:58;101005.38;;;4.51;72.07
70302;BME280;57706;56.326;43.882;2022-10-23T05:57:47;100994.63;;;4.56;71.96
70302;BME280;57706;56.326;43.882;2022-10-23T06:00:18;100995.31;;;4.21;73.37
70302;BME280;57706;56.326;43.882;2022-10-23T06:02:52;100990.09;;;4.34;72.90
70302;BME280;57706;56.326;43.882;2022-10-23T06:05:30;100997.94;;;4.58;72.20
70302;BME280;57706;56.326;43.882;2022-10-23T06:08:34;100992.31;;;4.64;71.92
70302;BME280;57706;56.326;43.882;2022-10-23T06:11:08;100990.09;;;4.71;71.36
70302;BME280;57706;56.326;43.882;2022-10-23T06:13:35;100988.72;;;4.78;71.18
70302;BME280;57706;56.326;43.882;2022-10-23T06:16:17;100987.16;;;4.76;71.31
70302;BME280;57706;56.326;43.882;2022-10-23T06:18:44;100999.09;;;4.91;70.93
70302;BME280;57706;56.326;43.882;2022-10-23T06:21:14;100986.50;;;5.09;70.19
70302;BME280;57706;56.326;43.882;2022-10-23T06:23:42;100990.13;;;4.95;70.79
70302;BME280;57706;56.326;43.882;2022-10-23T06:26:24;100983.97;;;4.96;70.72
70302;BME280;57706;56.326;43.882;2022-10-23T06:29:08;100985.81;;;5.07;70.28
70302;BME280;57706;56.326;43.882;2022-10-23T06:31:35;100973.66;;;5.19;70.19
70302;BME280;57706;56.326;43.882;2022-10-23T06:34:02;100990.09;;;5.20;70.12
70302;BME280;57706;56.326;43.882;2022-10-23T06:36:29;100976.97;;;5.21;70.48
70302;BME280;57706;56.326;43.882;2022-10-23T06:39:13;100975.78;;;5.26;69.49
70302;BME280;57706;56.326;43.882;2022-10-23T06:41:58;100969.06;;;5.34;69.52
70302;BME280;57706;56.326;43.882;2022-10-23T06:44:44;100972.72;;;5.32;69.70
70302;BME280;57706;56.326;43.882;2022-10-23T06:47:14;100961.34;;;5.21;69.93
70302;BME280;57706;56.326;43.882;2022-10-23T06:49:59;100977.72;;;5.35;69.33
70302;BME280;57706;56.326;43.882;2022-10-23T06:52:25;100965.63;;;5.34;69.50
70302;BME280;57706;56.326;43.882;2022-10-23T06:54:50;100962.28;;;5.20;70.57
70302;BME280;57706;56.326;43.882;2022-10-23T06:57:20;100954.75;;;5.51;69.17
70302;BME280;57706;56.326;43.882;2022-10-23T06:59:47;100949.78;;;5.60;68.73
70302;BME280;57706;56.326;43.882;2022-10-23T07:02:14;100944.88;;;5.79;68.11
70302;BME280;57706;56.326;43.882;2022-10-23T07:04:40;100943.41;;;5.75;68.23
70302;BME280;57706;56.326;43.882;2022-10-23T07:07:12;100949.34;;;5.66;68.29
70302;BME280;57706;56.326;43.882;2022-10-23T07:09:44;100948.78;;;5.74;68.00
70302;BME280;57706;56.326;43.882;2022-10-23T07:12:16;100944.38;;;5.74;68.24
70302;BME280;57706;56.326;43.882;2022-10-23T07:14:48;100940.59;;;5.90;67.61
70302;BME280;57706;56.326;43.882;2022-10-23T07:17:15;100939.69;;;6.02;66.96
70302;BME280;57706;56.326;43.882;2022-10-23T07:19:41;100934.19;;;5.94;67.28
70302;BME280;57706;56.326;43.882;2022-10-23T07:22:09;100932.31;;;6.08;66.69
70302;BME280;57706;56.326;43.882;2022-10-23T07:24:58;100939.97;;;5.63;68.57
70302;BME280;57706;56.326;43.882;2022-10-23T07:27:35;100928.00;;;5.72;68.41
70302;BME280;57706;56.326;43.882;2022-10-23T07:30:02;100934.41;;;5.91;67.83
70302;BME280;57706;56.326;43.882;2022-10-23T07:32:33;100923.41;;;5.76;68.19
70302;BME280;57706;56.326;43.882;2022-10-23T07:35:35;100923.09;;;6.03;67.51
70302;BME280;57706;56.326;43.882;2022-10-23T07:38:12;100923.16;;;6.13;67.05
70302;BME280;57706;56.326;43.882;2022-10-23T07:40:45;100907.16;;;5.95;67.69
70302;BME280;57706;56.326;43.882;2022-10-23T07:43:13;100906.44;;;6.27;66.62
70302;BME280;57706;56.326;43.882;2022-10-23T07:45:58;100913.69;;;6.24;66.91
70302;BME280;57706;56.326;43.882;2022-10-23T07:48:31;100911.53;;;6.40;66.08
70302;BME280;57706;56.326;43.882;2022-10-23T07:51:03;100909.50;;;6.44;65.68
70302;BME280;57706;56.326;43.882;2022-10-23T07:53:35;100897.50;;;6.41;65.98
70302;BME280;57706;56.326;43.882;2022-10-23T07:56:30;100902.63;;;6.31;66.54
70302;BME280;57706;56.326;43.882;2022-10-23T07:59:11;100902.97;;;6.38;65.97
70302;BME280;57706;56.326;43.882;2022-10-23T08:01:37;100897.22;;;6.12;67.05
70302;BME280;57706;56.326;43.882;2022-10-23T08:04:04;100893.16;;;6.19;66.78
70302;BME280;57706;56.326;43.882;2022-10-23T08:06:30;100881.47;;;6.34;66.44
70302;BME280;57706;56.326;43.882;2022-10-23T08:08:57;100891.22;;;6.44;66.32
70302;BME280;57706;56.326;43.882;2022-10-23T08:11:24;100885.56;;;6.27;66.81
70302;BME280;57706;56.326;43.882;2022-10-23T08:13:57;100882.88;;;6.50;66.45
70302;BME280;57706;56.326;43.882;2022-10-23T08:16:25;100885.09;;;6.55;66.06
70302;BME280;57706;56.326;43.882;2022-10-23T08:19:26;100882.16;;;6.48;66.28
70302;BME280;57706;56.326;43.882;2022-10-23T08:21:52;100881.13;;;6.72;65.52
70302;BME280;57706;56.326;43.882;2022-10-23T08:24:20;100876.59;;;6.85;64.84
70302;BME280;57706;56.326;43.882;2022-10-23T08:26:48;100873.78;;;6.66;65.60
70302;BME280;57706;56.326;43.882;2022-10-23T08:29:16;100882.78;;;6.40;66.61
70302;BME280;57706;56.326;43.882;2022-10-23T08:31:42;100875.78;;;6.41;66.41
70302;BME280;57706;56.326;43.882;2022-10-23T08:34:28;100880.66;;;6.78;65.30
70302;BME280;57706;56.326;43.882;2022-10-23T08:36:54;100870.81;;;6.92;64.83
70302;BME280;57706;56.326;43.882;2022-10-23T08:39:21;100875.09;;;6.93;64.79
70302;BME280;57706;56.326;43.882;2022-10-23T08:42:22;100868.72;;;6.64;65.89
70302;BME280;57706;56.326;43.882;2022-10-23T08:47:49;100858.38;;;6.63;65.85
70302;BME280;57706;56.326;43.882;2022-10-23T08:50:46;100862.59;;;6.75;65.62
70302;BME280;57706;56.326;43.882;2022-10-23T08:55:45;100866.31;;;6.94;64.45
70302;BME280;57706;56.326;43.882;2022-10-23T08:58:19;100858.69;;;7.02;64.17
70302;BME280;57706;56.326;43.882;2022-10-23T09:00:48;100848.97;;;6.93;64.43
70302;BME280;57706;56.326;43.882;2022-10-23T09:03:15;100852.03;;;6.98;64.31
70302;BME280;57706;56.326;43.882;2022-10-23T09:05:56;100850.50;;;7.16;63.49
70302;BME280;57706;56.326;43.882;2022-10-23T09:08:54;100842.53;;;6.97;63.51
70302;BME280;57706;56.326;43.882;2022-10-23T09:16:48;100832.91;;;7.19;62.84
70302;BME280;57706;56.326;43.882;2022-10-23T09:19:21;100831.84;;;7.31;62.50
70302;BME280;57706;56.326;43.882;2022-10-23T09:21:50;100832.16;;;7.38;62.07
70302;BME280;57706;56.326;43.882;2022-10-23T09:24:19;100822.72;;;7.47;61.96
70302;BME280;57706;56.326;43.882;2022-10-23T09:27:03;100821.75;;;7.98;60.43
70302;BME280;57706;56.326;43.882;2022-10-23T09:29:32;100827.13;;;7.87;60.45
70302;BME280;57706;56.326;43.882;2022-10-23T09:32:05;100832.22;;;7.98;59.98
70302;BME280;57706;56.326;43.882;2022-10-23T09:34:33;100812.03;;;8.20;59.25
70302;BME280;57706;56.326;43.882;2022-10-23T09:37:16;100819.44;;;8.15;58.54
70302;BME280;57706;56.326;43.882;2022-10-23T09:39:45;100807.19;;;8.06;58.09
70302;BME280;57706;56.326;43.882;2022-10-23T09:42:28;100800.16;;;8.46;57.46
70302;BME280;57706;56.326;43.882;2022-10-23T09:44:54;100797.94;;;8.80;56.52
70302;BME280;57706;56.326;43.882;2022-10-23T09:47:23;100800.47;;;9.20;55.01
70302;BME280;57706;56.326;43.882;2022-10-23T09:49:52;100790.09;;;9.28;54.81
70302;BME280;57706;56.326;43.882;2022-10-23T09:52:27;100787.13;;;9.97;53.11
70302;BME280;57706;56.326;43.882;2022-10-23T09:54:58;100781.56;;;10.55;51.14
70302;BME280;57706;56.326;43.882;2022-10-23T09:57:35;100770.28;;;11.50;48.81
70302;BME280;57706;56.326;43.882;2022-10-23T10:00:16;100764.00;;;15.49;40.67
70302;BME280;57706;56.326;43.882;2022-10-23T10:03:00;100759.16;;;14.63;41.21
70302;BME280;57706;56.326;43.882;2022-10-23T10:05:37;100754.25;;;16.94;36.42
70302;BME280;57706;56.326;43.882;2022-10-23T10:08:31;100742.88;;;17.63;35.12
70302;BME280;57706;56.326;43.882;2022-10-23T10:11:04;100750.47;;;18.87;33.07
70302;BME280;57706;56.326;43.882;2022-10-23T10:16:02;100729.66;;;16.78;36.08
70302;BME280;57706;56.326;43.882;2022-10-23T10:18:41;100727.31;;;16.33;36.70
70302;BME280;57706;56.326;43.882;2022-10-23T10:21:24;100716.16;;;19.63;31.53
70302;BME280;57706;56.326;43.882;2022-10-23T10:26:46;100710.81;;;17.57;34.75
70302;BME280;57706;56.326;43.882;2022-10-23T10:29:39;100712.91;;;18.43;32.41
70302;BME280;57706;56.326;43.882;2022-10-23T10:37:42;100696.72;;;13.85;40.94
70302;BME280;57706;56.326;43.882;2022-10-23T10:46:05;100675.75;;;12.88;43.02
70302;BME280;57706;56.326;43.882;2022-10-23T10:51:33;100674.78;;;11.23;46.93
70302;BME280;57706;56.326;43.882;2022-10-23T10:56:53;100665.03;;;10.72;48.41
70302;BME280;57706;56.326;43.882;2022-10-23T10:59:23;100660.75;;;10.18;49.49
70302;BME280;57706;56.326;43.882;2022-10-23T11:04:49;100647.00;;;9.80;50.82
70302;BME280;57706;56.326;43.882;2022-10-23T11:07:21;100650.75;;;9.59;51.48
70302;BME280;57706;56.326;43.882;2022-10-23T11:09:48;100664.00;;;9.58;51.24
70302;BME280;57706;56.326;43.882;2022-10-23T11:12:25;100638.72;;;9.93;50.63
70302;BME280;57706;56.326;43.882;2022-10-23T11:14:52;100638.00;;;10.54;49.51
70302;BME280;57706;56.326;43.882;2022-10-23T11:17:33;100627.16;;;15.57;38.47
70302;BME280;57706;56.326;43.882;2022-10-23T11:20:08;100610.06;;;15.16;37.99
70302;BME280;57706;56.326;43.882;2022-10-23T11:23:07;100637.19;;;13.51;40.78
70302;BME280;57706;56.326;43.882;2022-10-23T11:25:59;100621.94;;;12.66;43.33
70302;BME280;57706;56.326;43.882;2022-10-23T11:31:03;100611.69;;;11.65;45.57
70302;BME280;57706;56.326;43.882;2022-10-23T11:36:19;100602.97;;;10.18;49.83
70302;BME280;57706;56.326;43.882;2022-10-23T11:38:50;100607.91;;;10.22;50.16
70302;BME280;57706;56.326;43.882;2022-10-23T11:41:25;100617.56;;;9.95;50.93
70302;BME280;57706;56.326;43.882;2022-10-23T11:43:56;100607.16;;;9.67;51.72
70302;BME280;57706;56.326;43.882;2022-10-23T11:46:44;100606.94;;;9.42;52.83
70302;BME280;57706;56.326;43.882;2022-10-23T11:49:19;100610.50;;;9.04;54.25
70302;BME280;57706;56.326;43.882;2022-10-23T11:51:45;100601.66;;;9.05;54.60
70302;BME280;57706;56.326;43.882;2022-10-23T11:57:16;100593.53;;;8.80;55.72
70302;BME280;57706;56.326;43.882;2022-10-23T12:02:32;100590.81;;;8.72;56.20
70302;BME280;57706;56.326;43.882;2022-10-23T12:05:54;100595.84;;;8.56;56.86
70302;BME280;57706;56.326;43.882;2022-10-23T12:07:55;100582.38;;;8.40;57.46
70302;BME280;57706;56.326;43.882;2022-10-23T12:10:34;100588.03;;;8.36;57.97
70302;BME280;57706;56.326;43.882;2022-10-23T12:13:04;100575.31;;;8.41;57.87
70302;BME280;57706;56.326;43.882;2022-10-23T12:15:31;100580.31;;;8.34;58.08
70302;BME280;57706;56.326;43.882;2022-10-23T12:18:16;100591.41;;;8.18;58.83
70302;BME280;57706;56.326;43.882;2022-10-23T12:20:50;100594.50;;;8.32;58.26
70302;BME280;57706;56.326;43.882;2022-10-23T12:39:29;100565.66;;;8.04;59.55
70302;BME280;57706;56.326;43.882;2022-10-23T12:41:55;100562.59;;;8.18;58.89
70302;BME280;57706;56.326;43.882;2022-10-23T12:44:22;100560.44;;;7.94;59.80
70302;BME280;57706;56.326;43.882;2022-10-23T12:47:00;100550.50;;;7.97;59.95
70302;BME280;57706;56.326;43.882;2022-10-23T12:49:30;100556.03;;;7.94;59.81
70302;BME280;57706;56.326;43.882;2022-10-23T12:52:12;100545.84;;;7.91;60.18
70302;BME280;57706;56.326;43.882;2022-10-23T12:54:39;100545.56;;;7.94;60.25
70302;BME280;57706;56.326;43.882;2022-10-23T12:57:23;100545.28;;;7.97;59.95
70302;BME280;57706;56.326;43.882;2022-10-23T13:00:14;100562.41;;;7.62;61.35
70302;BME280;57706;56.326;43.882;2022-10-23T13:02:40;100543.09;;;7.83;60.82
70302;BME280;57706;56.326;43.882;2022-10-23T13:05:08;100543.09;;;7.83;60.73
70302;BME280;57706;56.326;43.882;2022-10-23T13:07:43;100544.09;;;7.72;61.33
70302;BME280;57706;56.326;43.882;2022-10-23T13:10:14;100535.13;;;7.75;61.25
70302;BME280;57706;56.326;43.882;2022-10-23T13:12:53;100533.72;;;8.00;60.55
70302;BME280;57706;56.326;43.882;2022-10-23T13:15:21;100548.75;;;7.88;61.05
70302;BME280;57706;56.326;43.882;2022-10-23T13:18:08;100542.41;;;7.81;61.55
70302;BME280;57706;56.326;43.882;2022-10-23T13:20:54;100536.50;;;7.79;61.67
70302;BME280;57706;56.326;43.882;2022-10-23T13:23:31;100519.47;;;7.55;62.92
70302;BME280;57706;56.326;43.882;2022-10-23T13:28:27;100519.59;;;7.63;63.79
70302;BME280;57706;56.326;43.882;2022-10-23T13:31:06;100517.81;;;7.34;64.74
70302;BME280;57706;56.326;43.882;2022-10-23T13:33:38;100515.63;;;7.39;65.26
70302;BME280;57706;56.326;43.882;2022-10-23T13:38:44;100498.84;;;7.42;64.93
70302;BME280;57706;56.326;43.882;2022-10-23T13:41:15;100499.81;;;7.11;65.82
70302;BME280;57706;56.326;43.882;2022-10-23T13:43:42;100498.28;;;7.28;65.54
70302;BME280;57706;56.326;43.882;2022-10-23T13:46:26;100491.28;;;7.39;65.04
70302;BME280;57706;56.326;43.882;2022-10-23T13:48:52;100506.97;;;7.29;65.37
70302;BME280;57706;56.326;43.882;2022-10-23T13:51:21;100479.56;;;7.33;65.04
70302;BME280;57706;56.326;43.882;2022-10-23T13:53:48;100484.78;;;7.53;65.26
70302;BME280;57706;56.326;43.882;2022-10-23T13:56:16;100480.66;;;7.40;66.03
70302;BME280;57706;56.326;43.882;2022-10-23T13:58:42;100477.13;;;7.02;67.39
70302;BME280;57706;56.326;43.882;2022-10-23T14:01:54;100480.13;;;6.87;68.22
70302;BME280;57706;56.326;43.882;2022-10-23T14:04:14;100469.69;;;7.27;67.11
70302;BME280;57706;56.326;43.882;2022-10-23T14:06:40;100476.41;;;7.10;67.25
70302;BME280;57706;56.326;43.882;2022-10-23T14:09:12;100480.66;;;7.01;67.34
70302;BME280;57706;56.326;43.882;2022-10-23T14:11:38;100477.94;;;7.12;66.73
70302;BME280;57706;56.326;43.882;2022-10-23T14:14:23;100469.66;;;7.07;66.88
70302;BME280;57706;56.326;43.882;2022-10-23T14:17:07;100467.47;;;7.32;65.49
70302;BME280;57706;56.326;43.882;2022-10-23T14:19:33;100464.72;;;7.34;65.52
70302;BME280;57706;56.326;43.882;2022-10-23T14:21:59;100461.69;;;7.38;64.91
70302;BME280;57706;56.326;43.882;2022-10-23T14:24:25;100474.63;;;7.40;64.96
70302;BME280;57706;56.326;43.882;2022-10-23T14:26:51;100465.66;;;7.42;64.94
70302;BME280;57706;56.326;43.882;2022-10-23T14:29:16;100455.47;;;7.39;64.74
70302;BME280;57706;56.326;43.882;2022-10-23T14:31:42;100457.53;;;7.36;65.14
70302;BME280;57706;56.326;43.882;2022-10-23T14:34:08;100463.31;;;7.39;65.17
70302;BME280;57706;56.326;43.882;2022-10-23T14:36:34;100455.72;;;7.56;66.49
70302;BME280;57706;56.326;43.882;2022-10-23T14:39:00;100453.28;;;7.25;68.75
70302;BME280;57706;56.326;43.882;2022-10-23T14:41:26;100461.69;;;6.99;72.44
70302;BME280;57706;56.326;43.882;2022-10-23T14:43:53;100458.09;;;6.60;73.00
70302;BME280;57706;56.326;43.882;2022-10-23T14:46:21;100460.00;;;6.58;73.59